Terminal Aerodrome Forecast
Issued by NWS San Angelo, TX

Home | Current Version | Previous Version | Text Only | Print | Product List | Glossary On
Versions: 1 2 3 4 5 6 7 8 9 10 11 12 13 14 15 16 17 18
000
FTUS44 KSJT 182300
TAFSJT
TAF
KSJT 182337Z 1900/1924 08006KT P6SM OVC150
     FM190400 06004KT 5SM BR VCSH BKN015
     FM190600 05004KT 4SM BR VCSH OVC007
     FM191400 03004KT 4SM BR OVC015
     FM191700 03004KT P6SM SCT025 OVC050=

USA.gov is the U.S. government's official web portal to all federal, state and local government web resources and services.